Time;durP1;ratioP1;P1;durP2;ratioP2;P2;SDS_P1;SDS_P2;PMS_P1;PMS_P2;Temp;Humidity;BMP_temperature;BMP_pressure;BME280_temperature;BME280_humidity;BME280_pressure;Samples;Min_cycle;Max_cycle;Signal;HPM_P1;HPM_P2
2022/02/01 00:00:22;;;;;;;5.57;2.83;;;;;;;0.21;100.00;95088.59;4991955;28;20051;-73
2022/02/01 00:03:02;;;;;;;6.90;2.47;;;;;;;0.18;100.00;95084.63;4995119;28;20500;-74
2022/02/01 00:11:04;;;;;;;7.47;2.80;;;;;;;0.13;100.00;95087.88;4993803;28;20050;-73
2022/02/01 00:35:00;;;;;;;8.13;2.40;;;;;;;0.13;100.00;95077.50;4978656;28;20496;-74
2022/02/01 00:37:27;;;;;;;5.55;2.60;;;;;;;0.09;100.00;95076.34;4990021;28;20050;-75
2022/02/01 00:39:57;;;;;;;2.85;1.92;;;;;;;0.16;100.00;95087.44;4990179;28;20038;-74
2022/02/01 00:42:23;;;;;;;3.85;2.20;;;;;;;0.12;100.00;95088.88;4989071;28;20090;-74
2022/02/01 00:44:49;;;;;;;5.70;2.80;;;;;;;0.03;100.00;95097.91;4989971;28;20049;-73
2022/02/01 00:47:16;;;;;;;4.50;2.30;;;;;;;0.05;100.00;95106.25;4990170;28;20054;-73
2022/02/01 00:49:42;;;;;;;2.83;1.80;;;;;;;0.05;100.00;95101.06;4983077;28;20034;-73
2022/02/01 00:52:08;;;;;;;3.45;2.15;;;;;;;0.00;100.00;95098.34;4990930;28;20038;-73
2022/02/01 00:54:34;;;;;;;3.78;2.30;;;;;;;-0.07;100.00;95113.09;4990125;28;20042;-73
2022/02/01 00:56:59;;;;;;;4.38;1.67;;;;;;;0.05;100.00;95106.25;4990531;28;20049;-73
2022/02/01 00:59:25;;;;;;;4.20;2.10;;;;;;;-0.15;100.00;95115.97;4985276;28;20065;-73
2022/02/01 01:01:51;;;;;;;3.35;2.03;;;;;;;-0.21;100.00;95126.16;4990520;28;20061;-73
2022/02/01 01:04:17;;;;;;;3.42;2.00;;;;;;;-0.24;100.00;95136.91;4987409;28;20061;-73
2022/02/01 01:06:43;;;;;;;4.40;2.10;;;;;;;-0.32;100.00;95129.41;4986321;28;20045;-73
2022/02/01 01:09:08;;;;;;;2.63;1.60;;;;;;;-0.23;100.00;95120.41;4989653;28;20069;-73
2022/02/01 01:11:34;;;;;;;2.67;1.70;;;;;;;-0.34;100.00;95113.31;4989944;28;20044;-73
2022/02/01 01:17:38;;;;;;;3.33;1.83;;;;;;;-0.37;100.00;95118.94;4958651;28;20095;-75
2022/02/01 01:44:32;;;;;;;3.40;2.15;;;;;;;-0.59;100.00;95139.94;4989116;28;20050;-74
2022/02/01 01:55:16;;;;;;;3.40;1.77;;;;;;;-0.50;100.00;95144.84;4988891;28;20049;-74
2022/02/01 01:57:43;;;;;;;4.43;2.72;;;;;;;-0.43;100.00;95136.06;4989350;28;20101;-74
2022/02/01 02:00:22;;;;;;;5.55;2.95;;;;;;;-0.44;100.00;95146.63;4989715;28;20138;-74
2022/02/01 02:02:48;;;;;;;5.85;3.15;;;;;;;-0.39;100.00;95152.75;4988069;28;20042;-75
2022/02/01 02:05:14;;;;;;;4.97;3.08;;;;;;;-0.36;100.00;95156.69;4998632;28;20120;-75
2022/02/01 02:07:39;;;;;;;5.18;2.97;;;;;;;-0.32;100.00;95163.03;4997628;28;20053;-75
2022/02/01 02:10:06;;;;;;;7.25;3.88;;;;;;;-0.36;100.00;95187.72;4988915;28;20050;-74
2022/02/01 02:12:55;;;;;;;5.82;3.38;;;;;;;-0.33;100.00;95182.16;4988124;28;20042;-75
2022/02/01 02:15:49;;;;;;;6.22;3.20;;;;;;;-0.27;100.00;95191.66;4987442;28;20101;-75
2022/02/01 02:18:18;;;;;;;7.78;4.25;;;;;;;-0.28;100.00;95195.22;4987893;28;20133;-75
2022/02/01 02:20:48;;;;;;;7.22;3.80;;;;;;;-0.29;100.00;95198.81;4990990;28;20500;-75
2022/02/01 02:23:13;;;;;;;7.97;4.43;;;;;;;-0.21;100.00;95201.16;4993665;28;20524;-74
2022/02/01 02:25:39;;;;;;;9.02;4.72;;;;;;;-0.24;100.00;95206.75;4998547;28;20046;-74
2022/02/01 02:28:07;;;;;;;10.13;5.10;;;;;;;-0.20;100.00;95218.25;4989238;28;20042;-75
2022/02/01 02:30:34;;;;;;;10.20;5.10;;;;;;;-0.22;100.00;95220.25;4989384;28;20050;-75
2022/02/01 02:33:09;;;;;;;8.77;4.68;;;;;;;-0.19;100.00;95219.84;4989167;28;20041;-75
2022/02/01 02:35:41;;;;;;;9.75;4.85;;;;;;;-0.20;100.00;95213.09;4987739;28;20054;-74
2022/02/01 02:38:15;;;;;;;6.88;3.97;;;;;;;-0.10;100.00;95232.50;4989561;28;20527;-75
2022/02/01 02:41:01;;;;;;;9.82;5.50;;;;;;;-0.15;100.00;95224.59;4991095;28;20524;-74
2022/02/01 02:46:13;;;;;;;11.60;5.03;;;;;;;-0.17;100.00;95237.75;4996978;28;20053;-74
2022/02/01 02:48:39;;;;;;;13.63;5.75;;;;;;;-0.20;100.00;95238.94;4988633;28;20042;-74
2022/02/01 02:51:04;;;;;;;12.60;5.63;;;;;;;-0.09;100.00;95252.22;4988763;28;20687;-75
2022/02/01 02:53:30;;;;;;;10.18;5.72;;;;;;;-0.13;100.00;95243.28;4988860;28;20050;-75
2022/02/01 02:55:55;;;;;;;12.15;6.00;;;;;;;-0.16;100.00;95259.22;4988104;28;20046;-75
2022/02/01 02:58:21;;;;;;;9.00;4.55;;;;;;;-0.18;100.00;95260.22;4988913;28;20117;-75
2022/02/01 03:00:47;;;;;;;10.88;5.70;;;;;;;-0.10;100.00;95264.38;4992291;28;20068;-75
2022/02/01 03:03:12;;;;;;;10.18;5.30;;;;;;;-0.13;100.00;95258.81;4998250;28;20041;-75
2022/02/01 03:05:38;;;;;;;12.10;5.65;;;;;;;-0.10;100.00;95273.91;4992598;28;20050;-75
2022/02/01 03:08:04;;;;;;;12.80;6.05;;;;;;;-0.10;100.00;95284.25;4994403;28;20042;-75
2022/02/01 03:10:29;;;;;;;10.35;5.85;;;;;;;-0.11;100.00;95280.88;4988498;28;20413;-75
2022/02/01 03:13:10;;;;;;;13.75;6.00;;;;;;;-0.12;100.00;95281.09;4988999;28;20519;-75
2022/02/01 03:15:47;;;;;;;15.13;6.60;;;;;;;-0.13;100.00;95301.00;4988493;28;20049;-75
2022/02/01 03:20:57;;;;;;;13.70;6.60;;;;;;;-0.13;100.00;95287.25;4991783;28;20057;-74
2022/02/01 03:23:22;;;;;;;12.02;6.18;;;;;;;-0.16;100.00;95295.44;4995329;28;20034;-74
2022/02/01 03:25:48;;;;;;;12.77;5.95;;;;;;;-0.11;100.00;95311.16;4995337;28;20057;-73
2022/02/01 03:28:13;;;;;;;12.38;6.28;;;;;;;-0.11;100.00;95313.72;5005765;28;20498;-74
2022/02/01 03:30:39;;;;;;;11.30;5.45;;;;;;;-0.12;100.00;95314.72;4992064;28;20038;-74
2022/02/01 03:33:04;;;;;;;14.10;6.38;;;;;;;-0.21;100.00;95340.81;4992150;28;20042;-74
2022/02/01 03:35:30;;;;;;;13.70;6.38;;;;;;;-0.23;100.00;95340.25;4992863;28;20519;-74
2022/02/01 03:37:57;;;;;;;12.13;5.95;;;;;;;-0.24;100.00;95351.56;4995877;28;20419;-75
2022/02/01 03:40:23;;;;;;;12.75;6.13;;;;;;;-0.21;100.00;95351.16;4987266;28;20043;-74
2022/02/01 03:42:48;;;;;;;12.95;5.60;;;;;;;-0.23;100.00;95352.34;4991921;28;20046;-74
2022/02/01 03:45:14;;;;;;;9.57;4.90;;;;;;;-0.25;100.00;95370.66;4991630;28;20093;-74
2022/02/01 03:47:39;;;;;;;11.82;5.78;;;;;;;-0.25;100.00;95375.84;4991344;28;20046;-74
2022/02/01 03:50:09;;;;;;;16.98;6.30;;;;;;;-0.36;100.00;95389.41;4994492;28;20504;-75
2022/02/01 03:52:35;;;;;;;15.48;7.28;;;;;;;-0.37;100.00;95404.13;5008730;28;20084;-74
2022/02/01 03:55:02;;;;;;;15.20;6.53;;;;;;;-0.31;100.00;95410.28;4991748;28;20039;-74
2022/02/01 03:57:27;;;;;;;13.80;6.10;;;;;;;-0.32;100.00;95411.28;4999601;28;20495;-74
2022/02/01 03:59:53;;;;;;;14.07;6.18;;;;;;;-0.37;100.00;95414.47;4991478;28;20049;-75
2022/02/01 04:02:18;;;;;;;12.70;5.97;;;;;;;-0.29;100.00;95421.19;4992193;28;20046;-74
2022/02/01 04:04:47;;;;;;;15.00;7.50;;;;;;;-0.30;100.00;95419.63;4990536;28;20049;-74
2022/02/01 04:07:13;;;;;;;12.75;5.68;;;;;;;-0.35;100.00;95432.38;4991027;28;20050;-73
2022/02/01 04:09:38;;;;;;;12.23;6.05;;;;;;;-0.41;100.00;95430.59;4996741;28;20046;-74
2022/02/01 04:12:05;;;;;;;14.45;5.78;;;;;;;-0.57;100.00;95429.22;4997198;28;20512;-74
2022/02/01 04:14:34;;;;;;;17.75;7.93;;;;;;;-0.58;100.00;95425.84;4988177;28;20038;-74
2022/02/01 04:17:02;;;;;;;16.13;7.07;;;;;;;-0.60;100.00;95425.25;4996813;28;20126;-74
2022/02/01 04:19:30;;;;;;;15.02;7.15;;;;;;;-0.47;100.00;95418.47;4991017;28;20040;-74
2022/02/01 04:22:03;;;;;;;16.35;7.47;;;;;;;-0.53;100.00;95410.53;4975151;28;20512;-74
2022/02/01 04:24:35;;;;;;;17.45;6.82;;;;;;;-0.51;100.00;95412.13;4987958;28;20046;-74
2022/02/01 04:27:01;;;;;;;14.57;7.25;;;;;;;-0.61;100.00;95413.31;4985248;28;20053;-74
2022/02/01 04:29:27;;;;;;;16.52;7.38;;;;;;;-0.64;100.00;95428.44;4995405;28;20496;-75
2022/02/01 04:31:53;;;;;;;21.92;7.78;;;;;;;-0.58;100.00;95431.00;4997534;28;20053;-75
2022/02/01 04:34:18;;;;;;;17.77;6.95;;;;;;;-0.61;100.00;95434.00;4990949;28;20054;-74
2022/02/01 04:36:44;;;;;;;22.92;6.82;;;;;;;-0.50;100.00;95439.53;4993853;28;20044;-74
2022/02/01 04:39:11;;;;;;;16.23;7.20;;;;;;;-0.53;100.00;95430.41;5012065;28;20042;-75
2022/02/01 04:41:36;;;;;;;14.32;6.53;;;;;;;-0.51;100.00;95448.31;4988923;28;20057;-75
2022/02/01 04:44:02;;;;;;;13.07;6.30;;;;;;;-0.49;100.00;95448.91;4990670;28;20412;-76
2022/02/01 04:46:29;;;;;;;15.23;6.82;;;;;;;-0.56;100.00;95454.88;4990839;28;20046;-75
2022/02/01 04:49:01;;;;;;;16.25;6.93;;;;;;;-0.51;100.00;95453.50;4993869;28;20049;-75
2022/02/01 04:51:28;;;;;;;15.43;6.43;;;;;;;-0.63;100.00;95472.19;4992235;28;20038;-75
2022/02/01 04:53:54;;;;;;;13.15;6.70;;;;;;;-0.54;100.00;95481.31;5001929;28;20108;-75
2022/02/01 04:56:20;;;;;;;15.75;7.00;;;;;;;-0.52;100.00;95483.69;5000894;28;20412;-75
2022/02/01 04:58:46;;;;;;;15.98;6.57;;;;;;;-0.56;100.00;95493.66;5002137;28;20105;-75
2022/02/01 05:01:13;;;;;;;16.42;7.00;;;;;;;-0.56;100.00;95501.41;4995260;28;20093;-75
2022/02/01 05:03:42;;;;;;;17.45;6.72;;;;;;;-0.59;100.00;95508.75;4991352;28;20042;-75
2022/02/01 05:06:08;;;;;;;17.10;7.03;;;;;;;-0.48;100.00;95520.28;4990271;28;20046;-75
2022/02/01 05:08:34;;;;;;;13.23;6.05;;;;;;;-0.49;100.00;95529.03;4997653;28;20047;-75
2022/02/01 05:11:00;;;;;;;16.15;6.53;;;;;;;-0.50;100.00;95532.59;4988914;28;20054;-75
2022/02/01 05:16:00;;;;;;;18.05;6.32;;;;;;;-0.60;100.00;95533.81;4998398;28;20062;-75
2022/02/01 05:18:29;;;;;;;13.70;6.18;;;;;;;-0.65;100.00;95541.34;4999745;28;20046;-75
2022/02/01 05:21:05;;;;;;;21.48;7.53;;;;;;;-0.63;100.00;95544.56;4992786;28;20043;-75
2022/02/01 05:23:30;;;;;;;14.73;6.40;;;;;;;-0.47;100.00;95542.56;4990020;28;20039;-75
2022/02/01 05:25:57;;;;;;;18.63;7.18;;;;;;;-0.54;100.00;95538.19;4996091;28;20117;-75
2022/02/01 05:28:23;;;;;;;14.50;6.38;;;;;;;-0.60;100.00;95533.81;4999256;28;20046;-75
2022/02/01 05:30:49;;;;;;;15.02;6.63;;;;;;;-0.48;100.00;95540.97;5008441;28;20044;-75
2022/02/01 05:33:14;;;;;;;14.25;6.68;;;;;;;-0.55;100.00;95546.94;4998225;28;20096;-75
2022/02/01 05:35:40;;;;;;;16.63;7.28;;;;;;;-0.56;100.00;95545.34;5001049;28;20092;-75
2022/02/01 05:38:05;;;;;;;16.50;6.50;;;;;;;-0.44;100.00;95552.53;5011169;28;20052;-75
2022/02/01 05:40:31;;;;;;;14.63;6.63;;;;;;;-0.50;100.00;95563.63;5000272;28;20463;-74
2022/02/01 05:43:03;;;;;;;24.08;7.45;;;;;;;-0.56;100.00;95566.03;4991511;28;20054;-74
2022/02/01 05:45:33;;;;;;;18.63;7.88;;;;;;;-0.59;100.00;95566.44;4989591;28;20051;-75
2022/02/01 05:48:01;;;;;;;18.17;7.43;;;;;;;-0.62;100.00;95566.81;4988631;28;20500;-74
2022/02/01 05:50:28;;;;;;;21.15;7.82;;;;;;;-0.58;100.00;95573.16;4989933;28;20042;-74
2022/02/01 05:52:53;;;;;;;16.38;7.18;;;;;;;-0.60;100.00;95585.50;5007100;28;20049;-74
2022/02/01 05:55:19;;;;;;;16.70;7.10;;;;;;;-0.57;100.00;95579.94;4992106;28;20046;-74
2022/02/01 05:57:45;;;;;;;19.40;8.07;;;;;;;-0.62;100.00;95592.66;4992160;28;20050;-74
2022/02/01 06:00:11;;;;;;;19.08;7.82;;;;;;;-0.59;100.00;95605.22;4999152;28;20038;-75
2022/02/01 06:02:37;;;;;;;20.75;7.57;;;;;;;-0.54;100.00;95620.91;4989330;28;20500;-75
2022/02/01 06:05:03;;;;;;;21.17;8.80;;;;;;;-0.57;100.00;95623.09;4981720;28;20050;-75
2022/02/01 06:07:28;;;;;;;18.52;8.25;;;;;;;-0.59;100.00;95628.47;4989106;28;20046;-75
2022/02/01 06:09:54;;;;;;;16.92;7.80;;;;;;;-0.50;100.00;95625.69;4988344;28;20121;-74
2022/02/01 06:12:19;;;;;;;17.98;7.55;;;;;;;-0.50;100.00;95617.91;4989374;28;20045;-75
2022/02/01 06:14:45;;;;;;;19.83;7.72;;;;;;;-0.50;100.00;95615.34;4988803;28;20180;-75
2022/02/01 06:17:10;;;;;;;17.80;7.90;;;;;;;-0.44;100.00;95615.34;4988666;28;20394;-75
2022/02/01 06:19:36;;;;;;;14.38;7.35;;;;;;;-0.43;100.00;95610.97;4987832;28;20039;-75
2022/02/01 06:22:04;;;;;;;11.98;6.32;;;;;;;-0.42;100.00;95612.56;4989533;28;20059;-75
2022/02/01 06:24:31;;;;;;;17.52;6.72;;;;;;;-0.43;100.00;95605.81;4989406;28;20046;-75
2022/02/01 06:26:56;;;;;;;15.32;6.88;;;;;;;-0.39;100.00;95596.66;4988918;28;20050;-75
2022/02/01 06:29:22;;;;;;;13.45;6.50;;;;;;;-0.49;100.00;95598.84;4988194;28;20779;-75
2022/02/01 06:31:48;;;;;;;19.83;7.07;;;;;;;-0.30;100.00;95600.66;4989677;28;20756;-75
2022/02/01 06:34:14;;;;;;;16.65;6.28;;;;;;;-0.35;100.00;95605.63;4988788;28;20109;-75
2022/02/01 06:36:39;;;;;;;14.63;6.57;;;;;;;-0.46;100.00;95611.38;4987549;28;20432;-76
2022/02/01 06:39:07;;;;;;;12.43;6.13;;;;;;;-0.36;100.00;95607.41;4987658;28;20038;-75
2022/02/01 06:41:36;;;;;;;19.27;7.68;;;;;;;-0.46;100.00;95598.44;4989279;28;20042;-75
2022/02/01 06:44:08;;;;;;;16.00;7.22;;;;;;;-0.43;100.00;95598.88;4989374;28;20042;-75
2022/02/01 06:46:34;;;;;;;17.02;7.00;;;;;;;-0.48;100.00;95608.19;4988411;28;20456;-75
2022/02/01 06:49:00;;;;;;;25.25;7.22;;;;;;;-0.60;100.00;95616.53;4988115;28;20085;-75
2022/02/01 06:51:28;;;;;;;18.48;7.85;;;;;;;-0.64;100.00;95619.72;4988050;28;20080;-75
2022/02/01 06:53:55;;;;;;;18.00;7.15;;;;;;;-0.65;100.00;95618.91;4988627;28;20034;-75
2022/02/01 06:56:28;;;;;;;14.05;6.15;;;;;;;-0.58;100.00;95624.09;4991848;28;20050;-74
2022/02/01 06:58:57;;;;;;;16.52;6.90;;;;;;;-0.58;100.00;95630.03;4990736;28;20070;-75
2022/02/01 07:01:24;;;;;;;15.02;6.60;;;;;;;-0.62;100.00;95633.22;4992347;28;20519;-74
2022/02/01 07:03:50;;;;;;;12.80;5.78;;;;;;;-0.48;100.00;95634.06;4994112;28;20041;-78
2022/02/01 07:06:16;;;;;;;13.15;5.57;;;;;;;-0.46;100.00;95647.56;4996097;28;20050;-73
2022/02/01 07:08:44;;;;;;;11.68;5.13;;;;;;;-0.51;100.00;95639.63;4991831;28;20042;-73
2022/02/01 07:11:11;;;;;;;13.23;4.50;;;;;;;-0.51;100.00;95649.97;4991355;28;20070;-76
2022/02/01 07:13:37;;;;;;;11.15;4.30;;;;;;;-0.56;100.00;95643.59;4995111;28;20038;-75
2022/02/01 07:16:05;;;;;;;10.38;4.85;;;;;;;-0.57;100.00;95652.31;5002951;28;20042;-75
2022/02/01 07:18:30;;;;;;;12.38;4.70;;;;;;;-0.51;100.00;95649.97;4991809;28;20125;-75
2022/02/01 07:20:56;;;;;;;8.85;4.20;;;;;;;-0.39;100.00;95630.28;4991402;28;20113;-75
2022/02/01 07:23:24;;;;;;;10.35;3.95;;;;;;;-0.38;100.00;95640.41;4989281;28;20088;-74
2022/02/01 07:25:51;;;;;;;10.23;4.85;;;;;;;-0.41;100.00;95650.38;5005284;28;20093;-75
2022/02/01 07:28:17;;;;;;;10.13;4.38;;;;;;;-0.33;100.00;95647.59;4990495;28;20034;-75
2022/02/01 07:30:44;;;;;;;19.50;4.90;;;;;;;-0.40;100.00;95651.97;4991989;28;20041;-76
2022/02/01 07:33:10;;;;;;;14.95;4.10;;;;;;;-0.36;100.00;95668.66;4991547;28;20049;-75
2022/02/01 07:35:37;;;;;;;21.52;4.53;;;;;;;-0.45;100.00;95669.84;4992352;28;20073;-75
2022/02/01 07:38:04;;;;;;;19.48;4.93;;;;;;;-0.41;100.00;95686.56;5015171;28;20041;-75
2022/02/01 07:40:30;;;;;;;15.90;4.65;;;;;;;-0.37;100.00;95685.19;5002711;28;20504;-73
2022/02/01 07:42:56;;;;;;;13.98;3.42;;;;;;;-0.39;100.00;95694.91;5017867;28;20046;-75
2022/02/01 07:45:26;;;;;;;19.02;4.57;;;;;;;-0.46;100.00;95704.44;4994435;28;20042;-75
2022/02/01 07:47:54;;;;;;;18.65;4.22;;;;;;;-0.47;100.00;95705.47;4980571;28;20043;-74
2022/02/01 07:50:19;;;;;;;18.33;5.10;;;;;;;-0.48;100.00;95711.63;4990540;28;20046;-74
2022/02/01 07:52:45;;;;;;;16.05;3.22;;;;;;;-0.43;100.00;95714.41;4984898;28;20481;-72
2022/02/01 07:55:11;;;;;;;16.98;3.90;;;;;;;-0.51;100.00;95723.13;4996825;28;20096;-73
2022/02/01 07:57:37;;;;;;;18.00;4.22;;;;;;;-0.63;100.00;95722.91;5002640;28;20046;-72
2022/02/01 08:00:04;;;;;;;32.63;4.43;;;;;;;-0.67;100.00;95724.28;5005775;28;20046;-71
2022/02/01 08:02:31;;;;;;;13.43;3.90;;;;;;;-0.63;100.00;95717.72;4990280;28;20058;-73
2022/02/01 08:04:57;;;;;;;25.40;3.92;;;;;;;-0.68;100.00;95720.09;4988944;28;20556;-73
2022/02/01 08:07:24;;;;;;;27.63;4.05;;;;;;;-0.66;100.00;95720.72;4990265;28;20078;-73
2022/02/01 08:09:57;;;;;;;15.50;4.30;;;;;;;-0.72;100.00;95726.63;4983365;28;20043;-73
2022/02/01 08:17:32;;;;;;;17.02;3.60;;;;;;;-0.70;100.00;95724.66;4986808;28;20484;-72
2022/02/01 08:20:02;;;;;;;24.90;4.60;;;;;;;-0.79;100.00;95743.91;4982077;28;20041;-71
2022/02/01 08:25:13;;;;;;;;;;;;;;;-0.69;100.00;95736.56;4972713;28;20039;-72
2022/02/01 08:27:39;;;;;;;22.05;3.78;;;;;;;-0.68;100.00;95735.59;4985041;28;20016;-72
2022/02/01 08:30:08;;;;;;;15.38;4.20;;;;;;;-0.77;100.00;95760.03;4989183;28;20568;-73
2022/02/01 08:32:35;;;;;;;28.60;5.15;;;;;;;-0.77;100.00;95760.03;4982279;28;20050;-73
2022/02/01 08:35:01;;;;;;;24.48;4.40;;;;;;;-0.79;100.00;95756.81;4990156;28;20045;-73
2022/02/01 08:37:26;;;;;;;15.05;4.32;;;;;;;-0.66;100.00;95756.91;4990962;28;20504;-72
2022/02/01 08:39:52;;;;;;;22.42;4.45;;;;;;;-0.70;100.00;95758.25;4990880;28;20121;-72
2022/02/01 08:42:18;;;;;;;14.25;3.83;;;;;;;-0.72;100.00;95757.63;4991547;28;20488;-72
2022/02/01 08:44:45;;;;;;;22.63;4.15;;;;;;;-0.80;100.00;95768.94;4988988;28;20121;-73
2022/02/01 08:47:14;;;;;;;15.60;3.22;;;;;;;-0.68;100.00;95769.19;4990219;28;20082;-73
2022/02/01 08:49:41;;;;;;;10.18;2.80;;;;;;;-0.70;100.00;95771.19;4991082;28;20046;-73
2022/02/01 08:52:11;;;;;;;23.40;3.90;;;;;;;-0.70;100.00;95771.19;4998986;28;20070;-73
2022/02/01 08:54:38;;;;;;;18.83;3.85;;;;;;;-0.75;100.00;95783.88;4999433;28;20038;-73
2022/02/01 08:57:21;;;;;;;17.75;3.55;;;;;;;-0.70;100.00;95781.53;5009933;28;20114;-73
2022/02/01 08:59:51;;;;;;;18.35;3.28;;;;;;;-0.72;98.56;95799.00;4993916;28;20137;-73
2022/02/01 09:02:21;;;;;;;18.10;3.13;;;;;;;-0.68;99.56;95800.22;4991118;28;20149;-73
2022/02/01 09:04:47;;;;;;;17.73;3.47;;;;;;;-0.72;100.00;95786.06;4990803;28;20038;-72
2022/02/01 09:07:13;;;;;;;13.50;3.38;;;;;;;-0.77;99.87;95791.03;4983184;28;20489;-72
2022/02/01 09:09:38;;;;;;;24.33;4.20;;;;;;;-0.63;100.00;95787.53;4994570;28;20109;-73
2022/02/01 09:12:05;;;;;;;23.98;3.90;;;;;;;-0.72;100.00;95783.50;5004838;28;20049;-73
2022/02/01 09:14:31;;;;;;;19.27;3.65;;;;;;;-0.71;100.00;95785.88;5003960;28;20054;-74
2022/02/01 09:16:58;;;;;;;19.05;3.42;;;;;;;-0.66;100.00;95792.25;5001658;28;20038;-74
2022/02/01 09:19:24;;;;;;;18.88;3.10;;;;;;;-0.57;98.71;95802.25;4990903;28;20563;-75
2022/02/01 09:21:50;;;;;;;12.00;3.15;;;;;;;-0.65;99.93;95810.16;4985257;28;20042;-74
2022/02/01 09:24:15;;;;;;;21.00;3.20;;;;;;;-0.63;99.64;95815.97;4986929;28;20042;-74
2022/02/01 09:26:42;;;;;;;14.07;2.97;;;;;;;-0.56;98.96;95814.22;4986997;28;20046;-75
2022/02/01 09:29:09;;;;;;;24.70;3.95;;;;;;;-0.60;100.00;95807.81;4986742;28;20038;-78
2022/02/01 09:31:35;;;;;;;16.10;3.72;;;;;;;-0.58;100.00;95790.31;4990252;28;20050;-76
2022/02/01 09:34:02;;;;;;;17.67;3.35;;;;;;;-0.59;99.15;95772.41;4989131;28;20522;-77
2022/02/01 09:36:28;;;;;;;21.45;3.47;;;;;;;-0.60;99.76;95781.97;4987492;28;20049;-74
2022/02/01 09:38:55;;;;;;;22.95;3.50;;;;;;;-0.54;99.83;95796.69;4990427;28;20075;-76
2022/02/01 09:41:22;;;;;;;17.50;3.60;;;;;;;-0.47;99.31;95804.50;4986869;28;20784;-73
2022/02/01 09:43:47;;;;;;;14.35;3.88;;;;;;;-0.35;99.22;95799.56;5004658;28;20154;-73
2022/02/01 09:46:13;;;;;;;24.15;3.80;;;;;;;-0.34;100.00;95806.34;4992962;28;20127;-73
2022/02/01 09:48:38;;;;;;;11.05;2.80;;;;;;;-0.32;99.01;95804.34;4985790;28;20042;-72
2022/02/01 09:51:07;;;;;;;10.18;2.72;;;;;;;-0.26;99.04;95819.13;4989150;28;20459;-72
2022/02/01 09:53:34;;;;;;;19.05;4.05;;;;;;;-0.34;100.00;95806.34;4988778;28;20038;-72
2022/02/01 09:56:00;;;;;;;16.33;2.60;;;;;;;-0.38;99.55;95811.09;5002524;28;20042;-73
2022/02/01 09:58:34;;;;;;;24.25;4.07;;;;;;;-0.24;99.22;95817.13;4988144;28;20046;-73
2022/02/01 10:01:13;;;;;;;14.13;3.00;;;;;;;-0.21;99.79;95811.56;4989289;28;20092;-74
2022/02/01 10:03:39;;;;;;;13.07;3.13;;;;;;;-0.16;100.00;95812.78;5005225;28;20046;-73
2022/02/01 10:06:12;;;;;;;19.98;3.65;;;;;;;-0.16;99.81;95825.69;4988822;28;20053;-73
2022/02/01 10:08:38;;;;;;;12.93;2.90;;;;;;;-0.15;100.00;95829.91;4989630;28;20181;-73
2022/02/01 10:11:08;;;;;;;9.07;2.60;;;;;;;-0.13;98.33;95822.72;5002295;28;20053;-76
2022/02/01 10:13:38;;;;;;;13.10;2.33;;;;;;;-0.14;99.11;95810.78;4999786;28;20042;-73
2022/02/01 10:16:14;;;;;;;17.35;3.33;;;;;;;0.00;97.25;95822.78;5007392;28;20038;-73
2022/02/01 10:18:40;;;;;;;22.65;2.90;;;;;;;-0.16;99.17;95815.34;4977409;28;20047;-73
2022/02/01 10:21:13;;;;;;;12.68;2.72;;;;;;;-0.14;99.22;95821.13;4987123;28;20054;-77
2022/02/01 10:23:41;;;;;;;11.18;2.75;;;;;;;-0.10;96.47;95819.75;4994336;28;20049;-73
2022/02/01 10:26:12;;;;;;;13.10;2.20;;;;;;;-0.09;97.64;95811.00;4996767;28;20536;-73
2022/02/01 10:36:56;;;;;;;12.98;3.10;;;;;;;-0.03;97.04;95810.22;4990255;28;20092;-72
2022/02/01 10:39:28;;;;;;;10.25;2.75;;;;;;;0.04;96.16;95813.63;5000281;28;20043;-74
2022/02/01 10:42:03;;;;;;;11.43;2.65;;;;;;;-0.07;97.05;95807.22;4991053;28;20089;-74
2022/02/01 10:44:43;;;;;;;19.02;3.28;;;;;;;0.04;95.20;95803.25;4993132;28;20471;-74
2022/02/01 10:47:12;;;;;;;9.35;2.47;;;;;;;0.08;95.09;95806.28;4992080;28;20104;-73
2022/02/01 10:49:38;;;;;;;10.65;2.35;;;;;;;-0.05;94.91;95796.69;4992158;28;20038;-73
2022/02/01 10:52:09;;;;;;;13.40;2.67;;;;;;;0.03;95.62;95775.00;4992778;28;20069;-73
2022/02/01 10:54:37;;;;;;;8.27;1.90;;;;;;;0.13;94.51;95791.75;4992915;28;20050;-73
2022/02/01 10:57:05;;;;;;;6.90;1.98;;;;;;;0.08;93.25;95783.78;4992117;28;20042;-73
2022/02/01 10:59:32;;;;;;;12.55;2.30;;;;;;;0.15;93.69;95769.06;4992922;28;20042;-73
2022/02/01 11:02:00;;;;;;;19.17;3.75;;;;;;;0.13;93.56;95778.81;4992821;28;20099;-73
2022/02/01 11:04:28;;;;;;;23.77;7.22;;;;;;;0.17;93.00;95777.44;4993558;28;20108;-73
2022/02/01 11:06:54;;;;;;;18.83;4.07;;;;;;;0.21;92.06;95771.84;5003729;28;20539;-73
2022/02/01 11:09:28;;;;;;;8.95;2.60;;;;;;;0.14;90.16;95762.31;5000008;28;20077;-73
2022/02/01 11:12:04;;;;;;;9.25;2.75;;;;;;;0.32;92.31;95763.50;4987447;28;20053;-73
2022/02/01 11:14:38;;;;;;;16.10;2.75;;;;;;;0.52;89.79;95785.03;4992640;28;20117;-73
2022/02/01 11:17:07;;;;;;;14.88;4.50;;;;;;;0.35;92.20;95789.00;4991690;28;20074;-73
2022/02/01 11:19:44;;;;;;;15.00;2.22;;;;;;;0.25;89.26;95779.03;4988448;28;20042;-72
2022/02/01 11:22:21;;;;;;;17.67;2.67;;;;;;;0.22;89.86;95778.63;4990479;28;20042;-73
2022/02/01 11:24:56;;;;;;;10.82;2.53;;;;;;;0.33;93.08;95778.03;4986812;28;20043;-74
2022/02/01 11:27:40;;;;;;;9.70;2.80;;;;;;;0.47;92.40;95761.50;4988252;28;20050;-74
2022/02/01 11:30:12;;;;;;;11.68;2.75;;;;;;;0.48;91.70;95757.94;4996516;28;20463;-74
2022/02/01 11:32:45;;;;;;;9.75;2.55;;;;;;;0.46;92.95;95762.53;4999754;28;20065;-74
2022/02/01 11:35:13;;;;;;;8.30;2.80;;;;;;;0.50;92.46;95758.53;4995368;28;20043;-74
2022/02/01 11:38:14;;;;;;;8.50;2.40;;;;;;;0.63;91.64;95754.34;4989461;28;20512;-74
2022/02/01 11:40:42;;;;;;;8.02;2.72;;;;;;;0.69;92.38;95743.19;4988814;28;20157;-74
2022/02/01 11:43:10;;;;;;;10.80;2.40;;;;;;;0.69;90.62;95743.97;4993732;28;20045;-74
2022/02/01 11:45:41;;;;;;;8.40;2.50;;;;;;;0.73;93.27;95744.38;5001527;28;20038;-74
2022/02/01 11:48:19;;;;;;;9.85;2.60;;;;;;;0.81;89.40;95726.03;4991317;28;20046;-74
2022/02/01 11:50:46;;;;;;;8.98;2.55;;;;;;;0.78;91.51;95730.81;4991220;28;20103;-74
2022/02/01 11:53:35;;;;;;;15.30;2.90;;;;;;;0.70;92.39;95729.22;4987584;28;20097;-74
2022/02/01 11:56:04;;;;;;;6.72;2.55;;;;;;;0.82;92.25;95732.00;5006430;28;20089;-75
2022/02/01 11:58:45;;;;;;;11.85;3.03;;;;;;;0.78;90.91;95721.25;4986976;28;20050;-74
2022/02/01 12:01:20;;;;;;;13.88;3.78;;;;;;;0.66;90.79;95699.53;4987107;28;20038;-74
2022/02/01 12:03:46;;;;;;;6.95;2.28;;;;;;;0.81;90.57;95689.75;4991184;28;20042;-75
2022/02/01 12:06:21;;;;;;;7.03;2.20;;;;;;;0.91;91.54;95683.38;4990896;28;20577;-76
2022/02/01 12:08:48;;;;;;;11.48;2.88;;;;;;;0.96;89.99;95678.34;4976225;28;20049;-74
2022/02/01 12:11:15;;;;;;;6.53;2.03;;;;;;;0.86;89.70;95682.19;4989503;28;20050;-74
2022/02/01 12:13:41;;;;;;;5.30;1.77;;;;;;;0.82;89.26;95673.22;4990912;28;20420;-74
2022/02/01 12:16:10;;;;;;;9.70;3.05;;;;;;;0.85;90.21;95664.25;4991691;28;20053;-74
2022/02/01 12:19:00;;;;;;;5.78;2.13;;;;;;;0.86;89.89;95653.69;4991011;28;20050;-74
2022/02/01 12:21:28;;;;;;;7.38;2.35;;;;;;;0.89;89.88;95643.88;4988227;28;20073;-74
2022/02/01 12:24:05;;;;;;;7.22;2.55;;;;;;;0.86;88.64;95642.50;4979486;28;20764;-74
2022/02/01 12:26:39;;;;;;;6.18;2.20;;;;;;;0.82;90.32;95639.53;4991492;28;20066;-74
2022/02/01 12:29:08;;;;;;;8.80;2.92;;;;;;;0.69;90.82;95624.03;4986756;28;20413;-74
2022/02/01 12:31:38;;;;;;;5.65;2.30;;;;;;;0.77;91.57;95623.78;4990546;28;20050;-73
2022/02/01 12:34:05;;;;;;;18.00;2.38;;;;;;;0.73;89.49;95609.66;5002890;28;20045;-75
2022/02/01 12:36:38;;;;;;;9.13;2.33;;;;;;;0.73;91.14;95614.84;4992628;28;20045;-74
2022/02/01 12:39:27;;;;;;;7.05;2.50;;;;;;;0.69;90.29;95613.69;4991009;28;20049;-75
2022/02/01 12:42:01;;;;;;;6.65;2.45;;;;;;;0.69;90.24;95619.66;4987290;28;20057;-75
2022/02/01 12:46:57;;;;;;;10.27;2.40;;;;;;;0.52;92.30;95624.47;4990838;28;20046;-76
2022/02/01 12:49:44;;;;;;;10.80;2.55;;;;;;;0.55;92.38;95607.72;4989959;28;20045;-74
2022/02/01 12:52:17;;;;;;;6.47;2.10;;;;;;;0.61;93.81;95616.47;4997218;28;20038;-77
2022/02/01 12:54:43;;;;;;;9.60;3.13;;;;;;;0.52;95.22;95608.94;4998190;28;20041;-74
2022/02/01 12:57:17;;;;;;;8.43;2.47;;;;;;;0.53;94.75;95614.88;4990882;28;20046;-74
2022/02/01 12:59:47;;;;;;;5.63;2.30;;;;;;;0.52;96.23;95608.16;4990634;28;20057;-75